sensor_id;sensor_type;location;lat;lon;timestamp;temperature;humidity
22426;DHT22;11380;50.822;15.790;2022-12-01T00:01:37;0.00;99.90
22426;DHT22;11380;50.822;15.790;2022-12-01T00:06:43;0.20;99.90
22426;DHT22;11380;50.822;15.790;2022-12-01T00:11:48;0.20;99.90
22426;DHT22;11380;50.822;15.790;2022-12-01T00:16:53;0.30;99.90
22426;DHT22;11380;50.822;15.790;2022-12-01T00:21:59;-0.10;99.90
22426;DHT22;11380;50.822;15.790;2022-12-01T00:27:04;-0.10;99.90
22426;DHT22;11380;50.822;15.790;2022-12-01T00:32:09;-0.10;99.90
22426;DHT22;11380;50.822;15.790;2022-12-01T00:37:15;0.00;99.90
22426;DHT22;11380;50.822;15.790;2022-12-01T00:42:20;0.20;99.90
22426;DHT22;11380;50.822;15.790;2022-12-01T00:47:26;0.00;99.90
22426;DHT22;11380;50.822;15.790;2022-12-01T00:52:32;-0.30;99.90
22426;DHT22;11380;50.822;15.790;2022-12-01T00:57:37;-0.20;99.90
22426;DHT22;11380;50.822;15.790;2022-12-01T01:02:42;-0.10;99.90
22426;DHT22;11380;50.822;15.790;2022-12-01T01:07:47;-0.10;99.90
22426;DHT22;11380;50.822;15.790;2022-12-01T01:12:53;-0.20;99.90
22426;DHT22;11380;50.822;15.790;2022-12-01T01:17:59;-0.40;99.90
22426;DHT22;11380;50.822;15.790;2022-12-01T01:23:04;-0.60;99.90
22426;DHT22;11380;50.822;15.790;2022-12-01T01:28:10;-0.70;99.90
22426;DHT22;11380;50.822;15.790;2022-12-01T01:33:15;-0.50;99.90
22426;DHT22;11380;50.822;15.790;2022-12-01T01:38:20;-0.30;99.90
22426;DHT22;11380;50.822;15.790;2022-12-01T01:43:40;-0.40;99.90
22426;DHT22;11380;50.822;15.790;2022-12-01T01:54:08;-0.10;99.90
22426;DHT22;11380;50.822;15.790;2022-12-01T01:59:10;-0.20;99.90
22426;DHT22;11380;50.822;15.790;2022-12-01T02:04:19;-0.30;99.90
22426;DHT22;11380;50.822;15.790;2022-12-01T02:09:25;-0.10;99.90
22426;DHT22;11380;50.822;15.790;2022-12-01T02:14:51;-0.10;99.90
22426;DHT22;11380;50.822;15.790;2022-12-01T02:41:11;-0.40;99.90
22426;DHT22;11380;50.822;15.790;2022-12-01T02:46:26;-0.50;99.90
22426;DHT22;11380;50.822;15.790;2022-12-01T02:51:33;-0.60;99.90
22426;DHT22;11380;50.822;15.790;2022-12-01T02:56:44;-0.50;99.90
22426;DHT22;11380;50.822;15.790;2022-12-01T03:07:12;-0.40;99.90
22426;DHT22;11380;50.822;15.790;2022-12-01T03:12:45;-0.80;99.90
22426;DHT22;11380;50.822;15.790;2022-12-01T03:17:50;-0.60;99.90
22426;DHT22;11380;50.822;15.790;2022-12-01T03:23:03;-0.90;99.90
22426;DHT22;11380;50.822;15.790;2022-12-01T03:28:07;-0.80;99.90
22426;DHT22;11380;50.822;15.790;2022-12-01T03:33:28;-1.00;99.90
22426;DHT22;11380;50.822;15.790;2022-12-01T03:38:29;-1.00;99.90
22426;DHT22;11380;50.822;15.790;2022-12-01T03:43:37;-0.50;99.90
22426;DHT22;11380;50.822;15.790;2022-12-01T03:48:44;-0.60;99.90
22426;DHT22;11380;50.822;15.790;2022-12-01T03:53:59;-0.40;99.90
22426;DHT22;11380;50.822;15.790;2022-12-01T03:59:06;-0.30;99.90
22426;DHT22;11380;50.822;15.790;2022-12-01T04:04:13;-0.40;99.90
22426;DHT22;11380;50.822;15.790;2022-12-01T04:09:18;-0.50;99.90
22426;DHT22;11380;50.822;15.790;2022-12-01T04:14:24;-0.60;99.90
22426;DHT22;11380;50.822;15.790;2022-12-01T04:19:29;-0.40;99.90
22426;DHT22;11380;50.822;15.790;2022-12-01T04:24:35;-0.30;99.90
22426;DHT22;11380;50.822;15.790;2022-12-01T04:29:41;-0.30;99.90
22426;DHT22;11380;50.822;15.790;2022-12-01T04:34:46;-0.30;99.90
22426;DHT22;11380;50.822;15.790;2022-12-01T04:39:53;-0.20;99.90
22426;DHT22;11380;50.822;15.790;2022-12-01T04:44:58;-0.20;99.90
22426;DHT22;11380;50.822;15.790;2022-12-01T04:50:03;-0.70;99.90
22426;DHT22;11380;50.822;15.790;2022-12-01T04:55:09;-0.70;99.90
22426;DHT22;11380;50.822;15.790;2022-12-01T05:00:15;-0.80;99.90
22426;DHT22;11380;50.822;15.790;2022-12-01T05:05:21;-0.80;99.90
22426;DHT22;11380;50.822;15.790;2022-12-01T05:10:27;-0.80;99.90
22426;DHT22;11380;50.822;15.790;2022-12-01T05:15:32;-1.10;99.90
22426;DHT22;11380;50.822;15.790;2022-12-01T05:20:38;-1.00;99.90
22426;DHT22;11380;50.822;15.790;2022-12-01T05:26:01;-0.80;99.90
22426;DHT22;11380;50.822;15.790;2022-12-01T05:31:06;-0.80;99.90
22426;DHT22;11380;50.822;15.790;2022-12-01T05:36:11;-0.90;99.90
22426;DHT22;11380;50.822;15.790;2022-12-01T05:41:17;-0.90;99.90
22426;DHT22;11380;50.822;15.790;2022-12-01T05:46:22;-0.70;99.90
22426;DHT22;11380;50.822;15.790;2022-12-01T05:51:27;-0.60;99.90
22426;DHT22;11380;50.822;15.790;2022-12-01T05:56:32;-0.40;99.90
22426;DHT22;11380;50.822;15.790;2022-12-01T06:01:37;-0.70;99.90
22426;DHT22;11380;50.822;15.790;2022-12-01T06:06:42;-0.70;99.90
22426;DHT22;11380;50.822;15.790;2022-12-01T06:11:47;-0.70;99.90
22426;DHT22;11380;50.822;15.790;2022-12-01T06:16:54;-0.60;99.90
22426;DHT22;11380;50.822;15.790;2022-12-01T06:21:59;-0.60;99.90
22426;DHT22;11380;50.822;15.790;2022-12-01T06:27:05;-0.60;99.90
22426;DHT22;11380;50.822;15.790;2022-12-01T06:32:10;-0.60;99.90
22426;DHT22;11380;50.822;15.790;2022-12-01T06:37:16;-0.60;99.90
22426;DHT22;11380;50.822;15.790;2022-12-01T06:42:23;-0.60;99.90
22426;DHT22;11380;50.822;15.790;2022-12-01T06:47:28;-0.60;99.90
22426;DHT22;11380;50.822;15.790;2022-12-01T06:52:34;-0.50;99.90
22426;DHT22;11380;50.822;15.790;2022-12-01T06:57:39;-0.40;99.90
22426;DHT22;11380;50.822;15.790;2022-12-01T07:02:45;-0.40;99.90
22426;DHT22;11380;50.822;15.790;2022-12-01T07:07:50;-0.50;99.90
22426;DHT22;11380;50.822;15.790;2022-12-01T07:12:57;-0.40;99.90
22426;DHT22;11380;50.822;15.790;2022-12-01T07:18:02;-0.60;99.90
22426;DHT22;11380;50.822;15.790;2022-12-01T07:23:07;-0.40;99.90
22426;DHT22;11380;50.822;15.790;2022-12-01T07:28:12;-0.50;99.90
22426;DHT22;11380;50.822;15.790;2022-12-01T07:33:17;-0.40;99.90
22426;DHT22;11380;50.822;15.790;2022-12-01T07:38:23;-0.40;99.90
22426;DHT22;11380;50.822;15.790;2022-12-01T07:43:29;-0.70;99.90
22426;DHT22;11380;50.822;15.790;2022-12-01T07:48:36;-0.70;99.90
22426;DHT22;11380;50.822;15.790;2022-12-01T07:53:46;-0.60;99.90
22426;DHT22;11380;50.822;15.790;2022-12-01T07:58:52;-0.60;99.90
22426;DHT22;11380;50.822;15.790;2022-12-01T08:03:58;-0.80;99.90
22426;DHT22;11380;50.822;15.790;2022-12-01T08:09:03;-0.90;99.90
22426;DHT22;11380;50.822;15.790;2022-12-01T08:14:08;-0.90;99.90
22426;DHT22;11380;50.822;15.790;2022-12-01T08:19:14;-0.60;99.90
22426;DHT22;11380;50.822;15.790;2022-12-01T08:24:20;-0.80;99.90
22426;DHT22;11380;50.822;15.790;2022-12-01T08:29:25;-0.60;99.90
22426;DHT22;11380;50.822;15.790;2022-12-01T08:34:37;-0.60;99.90
22426;DHT22;11380;50.822;15.790;2022-12-01T08:39:41;-0.40;99.90
22426;DHT22;11380;50.822;15.790;2022-12-01T08:44:46;-0.10;99.90
22426;DHT22;11380;50.822;15.790;2022-12-01T08:49:52;-0.10;99.90
22426;DHT22;11380;50.822;15.790;2022-12-01T08:54:58;-0.30;99.90
22426;DHT22;11380;50.822;15.790;2022-12-01T09:00:03;-0.10;99.90
22426;DHT22;11380;50.822;15.790;2022-12-01T09:05:09;0.10;99.90
22426;DHT22;11380;50.822;15.790;2022-12-01T09:10:15;0.00;99.90
22426;DHT22;11380;50.822;15.790;2022-12-01T09:15:20;-0.20;99.90
22426;DHT22;11380;50.822;15.790;2022-12-01T09:20:26;-0.20;99.90
22426;DHT22;11380;50.822;15.790;2022-12-01T09:25:32;0.00;99.90
22426;DHT22;11380;50.822;15.790;2022-12-01T09:30:38;0.00;99.90
22426;DHT22;11380;50.822;15.790;2022-12-01T09:35:43;-0.10;99.90
22426;DHT22;11380;50.822;15.790;2022-12-01T09:40:49;-0.50;99.90
22426;DHT22;11380;50.822;15.790;2022-12-01T09:46:01;-0.30;99.90
22426;DHT22;11380;50.822;15.790;2022-12-01T09:51:15;-0.80;99.90
22426;DHT22;11380;50.822;15.790;2022-12-01T09:56:24;-0.20;99.90
22426;DHT22;11380;50.822;15.790;2022-12-01T10:01:37;-0.20;99.90
22426;DHT22;11380;50.822;15.790;2022-12-01T10:06:58;-0.10;99.90
22426;DHT22;11380;50.822;15.790;2022-12-01T10:12:05;-0.10;99.90
22426;DHT22;11380;50.822;15.790;2022-12-01T10:17:17;-0.20;99.90
22426;DHT22;11380;50.822;15.790;2022-12-01T10:28:19;-0.20;99.90
22426;DHT22;11380;50.822;15.790;2022-12-01T10:33:29;-0.50;99.90
22426;DHT22;11380;50.822;15.790;2022-12-01T10:38:33;-0.40;99.90
22426;DHT22;11380;50.822;15.790;2022-12-01T10:43:48;-0.30;99.90
22426;DHT22;11380;50.822;15.790;2022-12-01T10:48:58;-0.30;99.90
22426;DHT22;11380;50.822;15.790;2022-12-01T10:54:10;-0.20;99.90
22426;DHT22;11380;50.822;15.790;2022-12-01T10:59:27;-0.20;99.90
22426;DHT22;11380;50.822;15.790;2022-12-01T11:04:41;0.00;99.90
22426;DHT22;11380;50.822;15.790;2022-12-01T11:09:56;0.30;99.90
22426;DHT22;11380;50.822;15.790;2022-12-01T11:15:00;0.40;99.90
22426;DHT22;11380;50.822;15.790;2022-12-01T11:20:23;0.50;99.90
22426;DHT22;11380;50.822;15.790;2022-12-01T11:25:20;0.50;99.90
22426;DHT22;11380;50.822;15.790;2022-12-01T11:30:28;0.50;99.90
22426;DHT22;11380;50.822;15.790;2022-12-01T11:35:35;0.30;99.90
22426;DHT22;11380;50.822;15.790;2022-12-01T11:40:45;0.20;99.90
22426;DHT22;11380;50.822;15.790;2022-12-01T11:45:51;0.10;99.90
22426;DHT22;11380;50.822;15.790;2022-12-01T11:51:09;0.30;99.90
22426;DHT22;11380;50.822;15.790;2022-12-01T11:56:30;0.30;99.90
22426;DHT22;11380;50.822;15.790;2022-12-01T12:29:11;0.90;99.90
22426;DHT22;11380;50.822;15.790;2022-12-01T12:45:16;0.60;99.90
22426;DHT22;11380;50.822;15.790;2022-12-01T12:55:44;0.40;99.90
22426;DHT22;11380;50.822;15.790;2022-12-01T13:00:54;0.50;99.90
22426;DHT22;11380;50.822;15.790;2022-12-01T13:06:07;0.40;99.90
22426;DHT22;11380;50.822;15.790;2022-12-01T13:11:28;0.70;99.90
22426;DHT22;11380;50.822;15.790;2022-12-01T13:16:41;0.30;99.90
22426;DHT22;11380;50.822;15.790;2022-12-01T13:21:47;0.60;99.90
22426;DHT22;11380;50.822;15.790;2022-12-01T13:32:36;0.70;99.90
22426;DHT22;11380;50.822;15.790;2022-12-01T13:37:43;0.70;99.90
22426;DHT22;11380;50.822;15.790;2022-12-01T13:43:05;0.50;99.90
22426;DHT22;11380;50.822;15.790;2022-12-01T13:53:55;0.40;99.90
22426;DHT22;11380;50.822;15.790;2022-12-01T13:59:35;0.30;99.90
22426;DHT22;11380;50.822;15.790;2022-12-01T14:04:21;0.50;99.90
22426;DHT22;11380;50.822;15.790;2022-12-01T14:09:37;0.50;99.90
22426;DHT22;11380;50.822;15.790;2022-12-01T14:14:49;0.50;99.90
22426;DHT22;11380;50.822;15.790;2022-12-01T14:25:26;0.20;99.90
22426;DHT22;11380;50.822;15.790;2022-12-01T14:35:51;-0.10;99.90
22426;DHT22;11380;50.822;15.790;2022-12-01T14:40:57;-0.10;99.90
22426;DHT22;11380;50.822;15.790;2022-12-01T14:46:07;0.00;99.90
22426;DHT22;11380;50.822;15.790;2022-12-01T14:51:31;0.10;99.90
22426;DHT22;11380;50.822;15.790;2022-12-01T14:56:32;0.40;99.90
22426;DHT22;11380;50.822;15.790;2022-12-01T15:01:37;0.20;99.90
22426;DHT22;11380;50.822;15.790;2022-12-01T15:06:44;0.50;99.90
22426;DHT22;11380;50.822;15.790;2022-12-01T15:11:58;0.50;99.90
22426;DHT22;11380;50.822;15.790;2022-12-01T15:17:02;0.30;99.90
22426;DHT22;11380;50.822;15.790;2022-12-01T15:22:15;0.30;99.90
22426;DHT22;11380;50.822;15.790;2022-12-01T15:27:23;0.40;99.90
22426;DHT22;11380;50.822;15.790;2022-12-01T15:32:30;0.40;99.90
22426;DHT22;11380;50.822;15.790;2022-12-01T15:37:41;0.30;99.90
22426;DHT22;11380;50.822;15.790;2022-12-01T15:43:02;0.10;99.90
22426;DHT22;11380;50.822;15.790;2022-12-01T15:48:15;0.00;99.90
22426;DHT22;11380;50.822;15.790;2022-12-01T15:53:23;-0.10;99.90
22426;DHT22;11380;50.822;15.790;2022-12-01T15:58:32;-0.10;99.90
22426;DHT22;11380;50.822;15.790;2022-12-01T16:04:04;-0.20;99.90
22426;DHT22;11380;50.822;15.790;2022-12-01T16:09:19;-0.20;99.90
22426;DHT22;11380;50.822;15.790;2022-12-01T16:14:25;-0.20;99.90
22426;DHT22;11380;50.822;15.790;2022-12-01T16:19:31;-0.10;99.90
22426;DHT22;11380;50.822;15.790;2022-12-01T16:24:53;-0.10;99.90
22426;DHT22;11380;50.822;15.790;2022-12-01T16:30:00;-0.20;99.90
22426;DHT22;11380;50.822;15.790;2022-12-01T16:40:30;-0.20;99.90
22426;DHT22;11380;50.822;15.790;2022-12-01T16:45:35;-0.20;99.90
22426;DHT22;11380;50.822;15.790;2022-12-01T16:50:41;-0.30;99.90
22426;DHT22;11380;50.822;15.790;2022-12-01T16:55:57;-0.20;99.90
22426;DHT22;11380;50.822;15.790;2022-12-01T17:01:04;-0.30;99.90
22426;DHT22;11380;50.822;15.790;2022-12-01T17:06:14;-0.30;99.90
22426;DHT22;11380;50.822;15.790;2022-12-01T17:11:18;-0.30;99.90
22426;DHT22;11380;50.822;15.790;2022-12-01T17:16:24;-0.20;99.90
22426;DHT22;11380;50.822;15.790;2022-12-01T17:21:30;-0.30;99.90
22426;DHT22;11380;50.822;15.790;2022-12-01T17:26:35;-0.30;99.90
22426;DHT22;11380;50.822;15.790;2022-12-01T17:31:41;-0.40;99.90
22426;DHT22;11380;50.822;15.790;2022-12-01T17:36:46;-0.30;99.90
22426;DHT22;11380;50.822;15.790;2022-12-01T17:41:55;-0.40;99.90
22426;DHT22;11380;50.822;15.790;2022-12-01T17:47:00;-0.30;99.90
22426;DHT22;11380;50.822;15.790;2022-12-01T17:52:06;-0.20;99.90
22426;DHT22;11380;50.822;15.790;2022-12-01T17:57:12;-0.40;99.90
22426;DHT22;11380;50.822;15.790;2022-12-01T18:02:18;-0.40;99.90
22426;DHT22;11380;50.822;15.790;2022-12-01T18:07:23;-0.30;99.90
22426;DHT22;11380;50.822;15.790;2022-12-01T18:12:29;-0.30;99.90
22426;DHT22;11380;50.822;15.790;2022-12-01T18:17:34;-0.30;99.90
22426;DHT22;11380;50.822;15.790;2022-12-01T18:22:39;-0.30;99.90
22426;DHT22;11380;50.822;15.790;2022-12-01T18:27:44;-0.20;99.90
22426;DHT22;11380;50.822;15.790;2022-12-01T18:32:49;-0.20;99.90
22426;DHT22;11380;50.822;15.790;2022-12-01T18:37:54;0.00;99.90
22426;DHT22;11380;50.822;15.790;2022-12-01T18:42:59;0.10;99.90
22426;DHT22;11380;50.822;15.790;2022-12-01T18:48:05;0.00;99.90
22426;DHT22;11380;50.822;15.790;2022-12-01T18:53:11;0.00;99.90
22426;DHT22;11380;50.822;15.790;2022-12-01T18:58:17;-0.10;99.90
22426;DHT22;11380;50.822;15.790;2022-12-01T19:03:23;-0.20;99.90
22426;DHT22;11380;50.822;15.790;2022-12-01T19:08:29;-0.20;99.90
22426;DHT22;11380;50.822;15.790;2022-12-01T19:13:34;-0.10;99.90
22426;DHT22;11380;50.822;15.790;2022-12-01T19:18:39;-0.10;99.90
22426;DHT22;11380;50.822;15.790;2022-12-01T19:23:46;0.00;99.90
22426;DHT22;11380;50.822;15.790;2022-12-01T19:28:51;-0.10;99.90
22426;DHT22;11380;50.822;15.790;2022-12-01T19:33:56;-0.10;99.90
22426;DHT22;11380;50.822;15.790;2022-12-01T19:39:02;-0.10;99.90
22426;DHT22;11380;50.822;15.790;2022-12-01T19:44:09;0.00;99.90
22426;DHT22;11380;50.822;15.790;2022-12-01T19:49:15;-0.10;99.90
22426;DHT22;11380;50.822;15.790;2022-12-01T19:54:20;0.00;99.90
22426;DHT22;11380;50.822;15.790;2022-12-01T19:59:25;0.10;99.90
22426;DHT22;11380;50.822;15.790;2022-12-01T20:04:31;-0.10;99.90
22426;DHT22;11380;50.822;15.790;2022-12-01T20:09:36;-0.10;99.90
22426;DHT22;11380;50.822;15.790;2022-12-01T20:14:42;0.00;99.90
22426;DHT22;11380;50.822;15.790;2022-12-01T20:19:47;0.10;99.90
22426;DHT22;11380;50.822;15.790;2022-12-01T20:24:53;-0.10;99.90
22426;DHT22;11380;50.822;15.790;2022-12-01T20:29:58;0.00;99.90
22426;DHT22;11380;50.822;15.790;2022-12-01T20:35:04;-0.10;99.90
22426;DHT22;11380;50.822;15.790;2022-12-01T20:40:09;-0.10;99.90
22426;DHT22;11380;50.822;15.790;2022-12-01T20:45:15;-0.10;99.90
22426;DHT22;11380;50.822;15.790;2022-12-01T20:50:21;0.00;99.90
22426;DHT22;11380;50.822;15.790;2022-12-01T20:55:27;-0.20;99.90
22426;DHT22;11380;50.822;15.790;2022-12-01T21:00:32;-0.10;99.90
22426;DHT22;11380;50.822;15.790;2022-12-01T21:05:40;-0.10;99.90
22426;DHT22;11380;50.822;15.790;2022-12-01T21:10:45;-0.10;99.90
22426;DHT22;11380;50.822;15.790;2022-12-01T21:15:54;-0.10;99.90
22426;DHT22;11380;50.822;15.790;2022-12-01T21:21:20;-0.10;99.90
22426;DHT22;11380;50.822;15.790;2022-12-01T21:26:15;-0.10;99.90
22426;DHT22;11380;50.822;15.790;2022-12-01T21:31:22;0.10;99.90
22426;DHT22;11380;50.822;15.790;2022-12-01T21:36:30;-0.10;99.90
22426;DHT22;11380;50.822;15.790;2022-12-01T21:41:36;-0.10;99.90
22426;DHT22;11380;50.822;15.790;2022-12-01T21:46:42;0.00;99.90
22426;DHT22;11380;50.822;15.790;2022-12-01T21:51:49;0.00;99.90
22426;DHT22;11380;50.822;15.790;2022-12-01T21:56:57;-0.10;99.90
22426;DHT22;11380;50.822;15.790;2022-12-01T22:02:06;0.00;99.90
22426;DHT22;11380;50.822;15.790;2022-12-01T22:07:13;-0.10;99.90
22426;DHT22;11380;50.822;15.790;2022-12-01T22:12:27;0.00;99.90
22426;DHT22;11380;50.822;15.790;2022-12-01T22:17:34;-0.10;99.90
22426;DHT22;11380;50.822;15.790;2022-12-01T22:22:40;-0.10;99.90
22426;DHT22;11380;50.822;15.790;2022-12-01T22:27:45;-0.10;99.90
22426;DHT22;11380;50.822;15.790;2022-12-01T22:33:00;-0.10;99.90
22426;DHT22;11380;50.822;15.790;2022-12-01T22:43:43;-0.20;99.90
22426;DHT22;11380;50.822;15.790;2022-12-01T22:59:21;-0.10;99.90
22426;DHT22;11380;50.822;15.790;2022-12-01T23:04:37;-0.20;99.90
22426;DHT22;11380;50.822;15.790;2022-12-01T23:09:39;-0.20;99.90
22426;DHT22;11380;50.822;15.790;2022-12-01T23:14:46;-0.20;99.90
22426;DHT22;11380;50.822;15.790;2022-12-01T23:25:19;-0.30;99.90
22426;DHT22;11380;50.822;15.790;2022-12-01T23:30:25;-0.30;99.90
22426;DHT22;11380;50.822;15.790;2022-12-01T23:35:33;-0.30;99.90
22426;DHT22;11380;50.822;15.790;2022-12-01T23:40:40;-0.20;99.90
22426;DHT22;11380;50.822;15.790;2022-12-01T23:45:46;-0.30;99.90
22426;DHT22;11380;50.822;15.790;2022-12-01T23:50:53;-0.40;99.90
22426;DHT22;11380;50.822;15.790;2022-12-01T23:56:11;-0.30;99.90
